createdAt,value
2023-02-01T00:00:56.303Z,2.60
2023-02-01T00:01:56.307Z,2.60
2023-02-01T00:02:56.358Z,2.40
2023-02-01T00:03:56.333Z,2.40
2023-02-01T00:04:56.292Z,2.70
2023-02-01T00:05:56.256Z,2.40
2023-02-01T00:06:56.280Z,2.30
2023-02-01T00:07:56.405Z,2.40
2023-02-01T00:08:56.222Z,2.50
2023-02-01T00:09:56.227Z,2.40
2023-02-01T00:10:56.199Z,2.50
2023-02-01T00:11:56.252Z,2.50
2023-02-01T00:12:56.235Z,2.40
2023-02-01T00:13:56.168Z,2.70
2023-02-01T00:14:56.175Z,2.90
2023-02-01T00:15:56.162Z,2.60
2023-02-01T00:16:56.160Z,2.30
2023-02-01T00:17:56.144Z,2.40
2023-02-01T00:18:56.263Z,2.70
2023-02-01T00:19:56.974Z,2.60
2023-02-01T00:20:56.094Z,2.50
2023-02-01T00:21:56.114Z,2.20
2023-02-01T00:22:56.082Z,1.70
2023-02-01T00:23:56.061Z,2.70
2023-02-01T00:24:56.054Z,2.40
2023-02-01T00:25:56.093Z,2.10
2023-02-01T00:26:56.117Z,2.30
2023-02-01T00:27:56.013Z,2.00
2023-02-01T00:28:56.063Z,2.20
2023-02-01T00:29:56.011Z,2.80
2023-02-01T00:30:56.104Z,2.00
2023-02-01T00:31:56.092Z,2.70
2023-02-01T00:32:56.011Z,2.60
2023-02-01T00:33:55.973Z,2.30
2023-02-01T00:34:55.972Z,2.30
2023-02-01T00:35:55.946Z,2.00
2023-02-01T00:36:55.960Z,2.70
2023-02-01T00:37:55.935Z,2.30
2023-02-01T00:38:55.924Z,2.30
2023-02-01T00:39:55.986Z,2.40
2023-02-01T00:40:55.916Z,2.30
2023-02-01T00:41:55.890Z,2.50
2023-02-01T00:42:55.863Z,2.40
2023-02-01T00:43:55.856Z,2.40
2023-02-01T00:44:55.889Z,2.10
2023-02-01T00:45:55.839Z,2.50
2023-02-01T00:46:55.968Z,1.90
2023-02-01T00:47:55.805Z,2.30
2023-02-01T00:48:55.836Z,1.90
2023-02-01T00:49:55.786Z,2.00
2023-02-01T00:50:55.774Z,2.30
2023-02-01T00:51:55.768Z,2.00
2023-02-01T00:52:55.778Z,2.00
2023-02-01T00:53:55.759Z,2.30
2023-02-01T00:54:55.747Z,1.80
2023-02-01T00:55:55.714Z,2.40
2023-02-01T00:56:55.854Z,2.20
2023-02-01T00:57:55.731Z,2.20
2023-02-01T00:58:55.701Z,1.70
2023-02-01T00:59:55.681Z,1.80
2023-02-01T01:00:55.784Z,2.20
2023-02-01T01:01:55.767Z,2.20
2023-02-01T01:02:55.647Z,2.20
2023-02-01T01:03:55.684Z,2.10
2023-02-01T01:04:55.912Z,2.30
2023-02-01T01:05:55.623Z,1.90
2023-02-01T01:06:55.689Z,2.00
2023-02-01T01:07:55.592Z,2.20
2023-02-01T01:08:55.648Z,1.80
2023-02-01T01:09:55.583Z,2.30
2023-02-01T01:10:55.611Z,1.90
2023-02-01T01:11:55.584Z,2.10
2023-02-01T01:12:55.581Z,1.90
2023-02-01T01:13:55.527Z,1.90
2023-02-01T01:14:55.546Z,2.00
2023-02-01T01:15:55.520Z,1.80
2023-02-01T01:16:55.532Z,2.20
2023-02-01T01:17:55.488Z,2.30
2023-02-01T01:18:55.533Z,1.80
2023-02-01T01:19:55.463Z,2.10
2023-02-01T01:20:55.470Z,2.10
2023-02-01T01:21:55.504Z,2.20
2023-02-01T01:22:55.437Z,2.00
2023-02-01T01:23:55.443Z,2.30
2023-02-01T01:24:55.408Z,2.30
2023-02-01T01:25:55.448Z,1.90
2023-02-01T01:26:55.485Z,2.00
2023-02-01T01:27:55.389Z,1.90
2023-02-01T01:28:55.468Z,2.10
2023-02-01T01:29:55.353Z,1.90
2023-02-01T01:30:55.397Z,1.90
2023-02-01T01:31:55.449Z,2.10
2023-02-01T01:32:55.358Z,2.10
2023-02-01T01:33:55.370Z,2.50
2023-02-01T01:34:55.310Z,2.50
2023-02-01T01:35:55.296Z,2.00
2023-02-01T01:36:55.316Z,2.00
2023-02-01T01:37:55.324Z,1.80
2023-02-01T01:38:55.293Z,1.80
2023-02-01T01:39:55.255Z,2.00
2023-02-01T01:40:55.242Z,2.00
2023-02-01T01:41:55.248Z,2.40
2023-02-01T01:42:55.264Z,2.20
2023-02-01T01:43:55.219Z,2.10
2023-02-01T01:44:55.196Z,2.10
2023-02-01T01:45:55.197Z,2.10
2023-02-01T01:46:55.224Z,2.10
2023-02-01T01:47:55.168Z,2.10
2023-02-01T01:48:55.186Z,2.30
2023-02-01T01:49:55.161Z,1.70
2023-02-01T01:50:55.138Z,2.00
2023-02-01T01:51:55.140Z,2.30
2023-02-01T01:52:55.114Z,2.20
2023-02-01T01:53:55.107Z,2.20
2023-02-01T01:54:55.112Z,2.60
2023-02-01T01:55:55.190Z,2.50
2023-02-01T01:56:55.117Z,2.00
2023-02-01T01:57:55.084Z,2.10
2023-02-01T01:58:55.053Z,2.10
2023-02-01T01:59:55.086Z,2.10
2023-02-01T02:00:55.121Z,2.10
2023-02-01T02:01:55.052Z,2.20
2023-02-01T02:02:55.013Z,1.90
2023-02-01T02:03:55.053Z,1.70
2023-02-01T02:04:55.003Z,2.20
2023-02-01T02:05:54.993Z,2.00
2023-02-01T02:06:55.016Z,2.10
2023-02-01T02:07:54.966Z,2.30
2023-02-01T02:08:54.944Z,1.90
2023-02-01T02:10:00.826Z,2.20
2023-02-01T02:10:55.956Z,2.20
2023-02-01T02:11:54.938Z,2.20
2023-02-01T02:12:54.899Z,2.00
2023-02-01T02:13:54.929Z,2.00
2023-02-01T02:14:54.879Z,1.90
2023-02-01T02:15:54.867Z,1.90
2023-02-01T02:16:54.874Z,2.20
2023-02-01T02:17:54.843Z,2.30
2023-02-01T02:18:54.836Z,2.10
2023-02-01T02:19:54.830Z,1.90
2023-02-01T02:20:54.832Z,2.30
2023-02-01T02:21:54.826Z,1.60
2023-02-01T02:22:54.790Z,2.40
2023-02-01T02:23:54.791Z,2.10
2023-02-01T02:24:54.818Z,1.80
2023-02-01T02:25:54.761Z,1.80
2023-02-01T02:26:54.764Z,2.00
2023-02-01T02:27:54.735Z,1.80
2023-02-01T02:28:54.722Z,2.00
2023-02-01T02:29:54.718Z,1.50
2023-02-01T02:30:54.763Z,1.90
2023-02-01T02:31:54.792Z,1.80
2023-02-01T02:32:54.682Z,2.00
2023-02-01T02:33:54.673Z,1.80
2023-02-01T02:34:54.662Z,1.60
2023-02-01T02:35:54.653Z,2.10
2023-02-01T02:36:54.677Z,2.10
2023-02-01T02:37:54.683Z,2.10
2023-02-01T02:38:54.618Z,2.30
2023-02-01T02:39:54.608Z,2.00
2023-02-01T02:40:54.595Z,1.80
2023-02-01T02:41:54.609Z,2.10
2023-02-01T02:42:55.032Z,1.70
2023-02-01T02:43:54.588Z,2.00
2023-02-01T02:44:54.576Z,1.90
2023-02-01T02:45:54.638Z,2.10
2023-02-01T02:46:54.588Z,1.60
2023-02-01T02:47:54.542Z,1.90
2023-02-01T02:48:54.519Z,1.60
2023-02-01T02:49:54.516Z,1.70
2023-02-01T02:50:54.509Z,1.70
2023-02-01T02:51:54.521Z,1.90
2023-02-01T02:52:54.509Z,2.10
2023-02-01T02:53:54.479Z,1.80
2023-02-01T02:54:54.636Z,2.10
2023-02-01T02:55:54.452Z,1.80
2023-02-01T02:56:54.432Z,1.80
2023-02-01T02:57:54.457Z,1.80
2023-02-01T02:58:54.412Z,1.50
2023-02-01T02:59:54.413Z,1.80
2023-02-01T03:00:54.433Z,1.60
2023-02-01T03:01:54.410Z,2.00
2023-02-01T03:02:54.457Z,1.70
2023-02-01T03:03:54.366Z,1.80
2023-02-01T03:04:54.355Z,1.60
2023-02-01T03:05:54.375Z,1.90
2023-02-01T03:06:54.526Z,1.90
2023-02-01T03:07:54.371Z,1.70
2023-02-01T03:08:54.430Z,1.80
2023-02-01T03:09:54.292Z,1.70
2023-02-01T03:10:54.296Z,1.60
2023-02-01T03:11:54.292Z,1.90
2023-02-01T03:12:54.275Z,2.00
2023-02-01T03:13:54.262Z,2.00
2023-02-01T03:14:54.278Z,2.10
2023-02-01T03:15:54.244Z,1.70
2023-02-01T03:16:54.308Z,2.10
2023-02-01T03:17:54.220Z,1.90
2023-02-01T03:18:54.208Z,1.90
2023-02-01T03:19:54.195Z,1.90
2023-02-01T03:20:54.192Z,1.30
2023-02-01T03:21:56.055Z,1.70
2023-02-01T03:22:54.187Z,2.30
2023-02-01T03:23:54.158Z,2.00
2023-02-01T03:24:54.155Z,2.60
2023-02-01T03:25:54.135Z,1.70
2023-02-01T03:26:54.136Z,2.00
2023-02-01T03:27:54.110Z,1.70
2023-02-01T03:28:54.097Z,1.80
2023-02-01T03:29:54.109Z,2.20
2023-02-01T03:30:54.148Z,1.90
2023-02-01T03:31:54.142Z,1.90
2023-02-01T03:32:54.061Z,1.60
2023-02-01T03:33:54.046Z,2.20
2023-02-01T03:34:54.046Z,1.90
2023-02-01T03:35:54.011Z,2.00
2023-02-01T03:36:54.024Z,1.90
2023-02-01T03:37:54.024Z,1.70
2023-02-01T03:38:53.997Z,1.50
2023-02-01T03:39:53.980Z,1.90
2023-02-01T03:40:54.004Z,1.80
2023-02-01T03:41:53.994Z,1.70
2023-02-01T03:42:53.954Z,2.00
2023-02-01T03:43:53.932Z,1.90
2023-02-01T03:44:53.926Z,1.90
2023-02-01T03:45:53.954Z,2.30
2023-02-01T03:46:53.976Z,1.90
2023-02-01T03:47:53.904Z,1.90
2023-02-01T03:48:53.907Z,2.10
2023-02-01T03:49:53.886Z,2.00
2023-02-01T03:50:53.867Z,1.90
2023-02-01T03:51:53.934Z,2.00
2023-02-01T03:52:53.850Z,1.90
2023-02-01T03:53:53.835Z,2.10
2023-02-01T03:54:53.828Z,2.10
2023-02-01T03:55:53.844Z,2.10
2023-02-01T03:56:53.830Z,2.20
2023-02-01T03:57:53.789Z,2.20
2023-02-01T03:58:53.773Z,2.30
2023-02-01T03:59:53.766Z,2.30
2023-02-01T04:00:53.792Z,1.80
2023-02-01T04:01:53.761Z,2.00
2023-02-01T04:02:53.735Z,2.00
2023-02-01T04:03:53.753Z,2.00
2023-02-01T04:04:53.729Z,2.10
2023-02-01T04:05:53.705Z,2.30
2023-02-01T04:06:53.707Z,2.10
2023-02-01T04:07:53.684Z,2.20
2023-02-01T04:08:53.685Z,2.50
2023-02-01T04:09:53.710Z,2.40
2023-02-01T04:10:53.684Z,2.10
2023-02-01T04:11:53.691Z,2.10
2023-02-01T04:12:53.643Z,2.30
2023-02-01T04:13:53.619Z,2.20
2023-02-01T04:14:53.630Z,1.90
2023-02-01T04:15:53.600Z,2.30
2023-02-01T04:16:53.625Z,2.60
2023-02-01T04:17:53.599Z,2.50
2023-02-01T04:18:53.579Z,2.60
2023-02-01T04:19:55.465Z,2.20
2023-02-01T04:20:53.594Z,2.30
2023-02-01T04:21:53.546Z,2.20
2023-02-01T04:22:53.530Z,2.40
2023-02-01T04:23:53.504Z,2.50
2023-02-01T04:24:53.522Z,2.50
2023-02-01T04:25:53.488Z,2.50
2023-02-01T04:26:53.541Z,2.80
2023-02-01T04:27:53.470Z,2.80
2023-02-01T04:28:53.465Z,2.70
2023-02-01T04:29:53.437Z,2.50
2023-02-01T04:30:53.506Z,2.70
2023-02-01T04:31:53.526Z,2.40
2023-02-01T04:32:53.439Z,2.40
2023-02-01T04:33:53.395Z,2.40
2023-02-01T04:34:53.391Z,2.20
2023-02-01T04:35:53.392Z,2.40
2023-02-01T04:36:53.377Z,2.60
2023-02-01T04:37:53.354Z,2.90
2023-02-01T04:38:53.349Z,2.60
2023-02-01T04:39:53.337Z,2.40
2023-02-01T04:40:53.319Z,2.30
2023-02-01T04:41:53.349Z,2.00
2023-02-01T04:42:53.305Z,2.30
2023-02-01T04:43:53.365Z,2.40
2023-02-01T04:44:53.300Z,2.50
2023-02-01T04:45:53.345Z,2.50
2023-02-01T04:46:53.271Z,2.30
2023-02-01T04:47:53.256Z,1.90
2023-02-01T04:48:53.249Z,2.30
2023-02-01T04:49:53.392Z,2.20
2023-02-01T04:50:53.227Z,2.40
2023-02-01T04:51:53.355Z,2.30
2023-02-01T04:52:53.215Z,2.50
2023-02-01T04:53:53.271Z,3.00
2023-02-01T04:54:53.240Z,2.30
2023-02-01T04:55:53.158Z,2.30
2023-02-01T04:56:53.174Z,2.30
2023-02-01T04:57:53.142Z,2.60
2023-02-01T04:58:53.134Z,2.40
2023-02-01T04:59:53.132Z,2.50
2023-02-01T05:00:53.125Z,2.20
2023-02-01T05:01:53.121Z,2.20
2023-02-01T05:02:53.085Z,2.20
2023-02-01T05:03:53.075Z,2.20
2023-02-01T05:04:53.143Z,2.40
2023-02-01T05:05:53.061Z,2.50
2023-02-01T05:06:53.070Z,2.50
2023-02-01T05:07:53.064Z,2.40
2023-02-01T05:08:53.024Z,2.70
2023-02-01T05:09:53.009Z,2.30
2023-02-01T05:10:53.001Z,2.30
2023-02-01T05:11:53.014Z,1.80
2023-02-01T05:12:53.003Z,2.00
2023-02-01T05:13:52.969Z,1.80
2023-02-01T05:14:52.974Z,1.80
2023-02-01T05:15:53.056Z,2.10
2023-02-01T05:16:52.957Z,2.20
2023-02-01T05:17:52.951Z,1.60
2023-02-01T05:18:52.920Z,2.00
2023-02-01T05:19:52.906Z,1.90
2023-02-01T05:20:52.914Z,1.90
2023-02-01T05:21:52.890Z,1.90
2023-02-01T05:22:52.939Z,2.00
2023-02-01T05:23:52.870Z,2.20
2023-02-01T05:24:52.855Z,2.40
2023-02-01T05:25:52.844Z,2.10
2023-02-01T05:26:52.895Z,1.90
2023-02-01T05:27:53.514Z,2.20
2023-02-01T05:28:52.807Z,1.80
2023-02-01T05:29:52.800Z,2.30
2023-02-01T05:30:52.893Z,2.10
2023-02-01T05:31:52.967Z,2.30
2023-02-01T05:32:52.801Z,2.30
2023-02-01T05:33:52.758Z,2.00
2023-02-01T05:34:52.751Z,1.90
2023-02-01T05:35:52.745Z,1.80
2023-02-01T05:36:52.742Z,1.60
2023-02-01T05:37:52.717Z,2.30
2023-02-01T05:38:52.708Z,2.30
2023-02-01T05:39:52.697Z,2.10
2023-02-01T05:40:52.686Z,1.80
2023-02-01T05:41:52.713Z,2.10
2023-02-01T05:42:52.676Z,1.80
2023-02-01T05:43:52.670Z,2.50
2023-02-01T05:44:52.692Z,2.10
2023-02-01T05:45:52.637Z,2.20
2023-02-01T05:46:52.679Z,2.10
2023-02-01T05:47:52.660Z,2.20
2023-02-01T05:48:52.636Z,2.00
2023-02-01T05:49:52.595Z,2.30
2023-02-01T05:50:52.579Z,1.80
2023-02-01T05:51:52.640Z,2.20
2023-02-01T05:52:52.575Z,2.10
2023-02-01T05:53:52.554Z,1.90
2023-02-01T05:54:52.530Z,2.20
2023-02-01T05:55:52.534Z,2.00
2023-02-01T05:56:52.526Z,2.30
2023-02-01T05:57:52.538Z,2.30
2023-02-01T05:58:52.505Z,2.20
2023-02-01T05:59:52.479Z,2.20
2023-02-01T06:00:52.467Z,2.10
2023-02-01T06:01:52.469Z,2.20
2023-02-01T06:02:52.576Z,2.10
2023-02-01T06:03:52.468Z,2.00
2023-02-01T06:04:52.456Z,2.50
2023-02-01T06:05:52.414Z,1.70
2023-02-01T06:06:52.408Z,2.30
2023-02-01T06:07:52.419Z,2.10
2023-02-01T06:08:52.381Z,1.90
2023-02-01T06:09:52.378Z,1.70
2023-02-01T06:10:52.369Z,2.00
2023-02-01T06:11:52.356Z,1.90
2023-02-01T06:12:52.426Z,2.20
2023-02-01T06:13:52.373Z,2.00
2023-02-01T06:14:52.320Z,1.70
2023-02-01T06:15:52.415Z,2.20
2023-02-01T06:16:52.303Z,2.20
2023-02-01T06:17:52.297Z,2.30
2023-02-01T06:18:52.305Z,1.80
2023-02-01T06:19:52.316Z,2.20
2023-02-01T06:20:52.278Z,1.70
2023-02-01T06:21:52.245Z,1.90
2023-02-01T06:22:52.241Z,1.80
2023-02-01T06:23:52.234Z,2.00
2023-02-01T06:24:52.231Z,2.00
2023-02-01T06:25:52.235Z,1.60
2023-02-01T06:26:52.233Z,1.80
2023-02-01T06:27:52.187Z,1.80
2023-02-01T06:28:52.171Z,1.60
2023-02-01T06:29:52.248Z,1.70
2023-02-01T06:30:52.230Z,2.10
2023-02-01T06:31:52.211Z,2.00
2023-02-01T06:32:52.153Z,1.80
2023-02-01T06:33:52.131Z,2.00
2023-02-01T06:34:52.111Z,1.60
2023-02-01T06:35:52.118Z,2.10
2023-02-01T06:36:52.109Z,2.30
2023-02-01T06:37:52.171Z,2.30
2023-02-01T06:38:52.074Z,1.70
2023-02-01T06:39:52.066Z,1.60
2023-02-01T06:40:52.049Z,1.70
2023-02-01T06:41:52.031Z,2.00
2023-02-01T06:42:52.047Z,1.80
2023-02-01T06:43:52.062Z,1.60
2023-02-01T06:44:52.036Z,1.70
2023-02-01T06:45:51.992Z,1.60
2023-02-01T06:46:52.007Z,1.40
2023-02-01T06:47:51.999Z,1.70
2023-02-01T06:48:51.981Z,1.70
2023-02-01T06:49:51.948Z,1.70
2023-02-01T06:50:51.967Z,1.50
2023-02-01T06:51:51.928Z,1.40
2023-02-01T06:52:51.979Z,1.50
2023-02-01T06:53:51.914Z,1.50
2023-02-01T06:54:51.897Z,1.50
2023-02-01T06:55:51.884Z,1.60
2023-02-01T06:56:51.873Z,1.70
2023-02-01T06:57:51.910Z,1.30
2023-02-01T06:58:51.855Z,1.30
2023-02-01T06:59:51.842Z,1.40
2023-02-01T07:00:51.869Z,1.30
2023-02-01T07:01:51.905Z,1.20
2023-02-01T07:02:51.842Z,1.40
2023-02-01T07:03:51.865Z,1.80
2023-02-01T07:04:51.787Z,1.50
2023-02-01T07:05:51.777Z,1.20
2023-02-01T07:06:51.765Z,1.20
2023-02-01T07:07:51.774Z,1.60
2023-02-01T07:08:51.806Z,1.20
2023-02-01T07:09:51.780Z,1.70
2023-02-01T07:10:51.723Z,1.40
2023-02-01T07:11:51.720Z,1.70
2023-02-01T07:12:51.723Z,1.40
2023-02-01T07:13:51.698Z,1.30
2023-02-01T07:14:51.725Z,1.30
2023-02-01T07:15:51.888Z,1.50
2023-02-01T07:16:51.660Z,1.90
2023-02-01T07:17:51.683Z,1.70
2023-02-01T07:18:51.638Z,1.50
2023-02-01T07:19:51.655Z,1.70
2023-02-01T07:20:51.640Z,1.10
2023-02-01T07:21:51.608Z,1.70
2023-02-01T07:22:51.621Z,1.60
2023-02-01T07:23:51.589Z,1.20
2023-02-01T07:24:51.651Z,1.80
2023-02-01T07:25:51.564Z,1.40
2023-02-01T07:26:51.645Z,1.70
2023-02-01T07:27:51.563Z,1.40
2023-02-01T07:28:51.532Z,1.30
2023-02-01T07:29:51.536Z,1.70
2023-02-01T07:30:51.598Z,1.40
2023-02-01T07:31:51.510Z,1.60
2023-02-01T07:32:51.562Z,1.40
2023-02-01T07:33:51.478Z,1.30
2023-02-01T07:34:51.466Z,2.10
2023-02-01T07:35:51.471Z,1.30
2023-02-01T07:36:51.446Z,1.60
2023-02-01T07:37:51.464Z,1.60
2023-02-01T07:38:51.423Z,1.90
2023-02-01T07:39:51.414Z,1.90
2023-02-01T07:40:51.435Z,1.90
2023-02-01T07:41:51.392Z,1.20
2023-02-01T07:42:51.403Z,1.60
2023-02-01T07:43:51.373Z,2.50
2023-02-01T07:44:51.371Z,1.80
2023-02-01T07:45:51.387Z,1.70
2023-02-01T07:46:51.352Z,1.30
2023-02-01T07:47:51.351Z,1.60
2023-02-01T07:48:51.323Z,1.70
2023-02-01T07:49:51.342Z,1.60
2023-02-01T07:50:51.302Z,1.50
2023-02-01T07:51:51.285Z,1.60
2023-02-01T07:52:51.303Z,1.40
2023-02-01T07:53:51.274Z,2.30
2023-02-01T07:54:51.281Z,1.60
2023-02-01T07:55:51.256Z,1.80
2023-02-01T07:56:51.259Z,2.00
2023-02-01T07:57:51.239Z,1.90
2023-02-01T07:58:51.216Z,1.60
2023-02-01T07:59:51.209Z,3.50
2023-02-01T08:00:51.210Z,2.80
2023-02-01T08:01:51.211Z,1.70
2023-02-01T08:02:51.205Z,1.70
2023-02-01T08:03:51.156Z,1.70
2023-02-01T08:04:51.145Z,1.80
2023-02-01T08:05:51.133Z,1.90
2023-02-01T08:06:51.124Z,1.80
2023-02-01T08:07:51.128Z,1.60
2023-02-01T08:08:51.101Z,1.30
2023-02-01T08:09:51.104Z,1.60
2023-02-01T08:10:51.081Z,1.70
2023-02-01T08:11:51.072Z,1.80
2023-02-01T08:12:51.105Z,1.40
2023-02-01T08:13:51.058Z,1.60
2023-02-01T08:14:51.060Z,1.40
2023-02-01T08:15:51.068Z,1.80
2023-02-01T08:16:51.083Z,1.90
2023-02-01T08:17:51.028Z,1.50
2023-02-01T08:18:50.996Z,1.40
2023-02-01T08:19:50.995Z,1.40
2023-02-01T08:20:50.977Z,1.60
2023-02-01T08:21:51.003Z,1.70
2023-02-01T08:22:53.206Z,1.90
2023-02-01T08:23:50.952Z,1.90
2023-02-01T08:24:50.931Z,2.30
2023-02-01T08:25:50.929Z,1.50
2023-02-01T08:26:50.942Z,2.10
2023-02-01T08:27:50.980Z,2.10
2023-02-01T08:28:50.919Z,2.20
2023-02-01T08:29:50.917Z,1.80
2023-02-01T08:30:50.899Z,1.80
2023-02-01T08:31:50.943Z,2.00
2023-02-01T08:32:50.871Z,1.40
2023-02-01T08:33:50.840Z,1.30
2023-02-01T08:34:50.866Z,1.90
2023-02-01T08:35:50.896Z,2.60
2023-02-01T08:36:50.812Z,1.70
2023-02-01T08:37:50.829Z,1.70
2023-02-01T08:38:50.796Z,1.60
2023-02-01T08:39:50.786Z,1.40
2023-02-01T08:40:50.816Z,1.60
2023-02-01T08:41:50.752Z,1.50
2023-02-01T08:42:50.770Z,1.30
2023-02-01T08:43:50.736Z,1.60
2023-02-01T08:44:50.760Z,1.30
2023-02-01T08:45:50.787Z,1.90
2023-02-01T08:46:50.847Z,1.20
2023-02-01T08:47:50.756Z,1.50
2023-02-01T08:48:50.676Z,1.30
2023-02-01T08:49:50.685Z,1.40
2023-02-01T08:50:50.703Z,1.20
2023-02-01T08:51:50.647Z,1.30
2023-02-01T08:52:50.662Z,1.50
2023-02-01T08:53:50.691Z,1.30
2023-02-01T08:54:50.618Z,1.40
2023-02-01T08:55:50.625Z,1.30
2023-02-01T08:56:50.634Z,1.40
2023-02-01T08:57:50.609Z,1.70
2023-02-01T08:58:50.572Z,1.30
2023-02-01T08:59:50.575Z,1.60
2023-02-01T09:00:50.705Z,1.70
2023-02-01T09:01:50.544Z,1.30
2023-02-01T09:02:50.564Z,1.70
2023-02-01T09:03:50.650Z,1.30
2023-02-01T09:04:50.528Z,1.70
2023-02-01T09:05:51.088Z,2.20
2023-02-01T09:06:50.500Z,1.70
2023-02-01T09:07:50.507Z,1.70
2023-02-01T09:08:50.513Z,1.30
2023-02-01T09:09:50.473Z,1.40
2023-02-01T09:10:50.460Z,1.70
2023-02-01T09:11:50.438Z,1.50
2023-02-01T09:12:50.455Z,1.50
2023-02-01T09:13:50.499Z,1.10
2023-02-01T09:14:50.478Z,1.30
2023-02-01T09:15:50.445Z,1.30
2023-02-01T09:16:50.403Z,1.90
2023-02-01T09:17:50.394Z,2.50
2023-02-01T09:18:56.098Z,2.70
2023-02-01T09:19:51.351Z,3.30
2023-02-01T09:20:50.339Z,2.00
2023-02-01T09:21:50.358Z,2.20
2023-02-01T09:22:50.347Z,2.20
2023-02-01T09:23:50.320Z,1.90
2023-02-01T09:24:50.385Z,1.80
2023-02-01T09:25:50.288Z,1.20
2023-02-01T09:26:50.363Z,1.50
2023-02-01T09:27:50.332Z,1.40
2023-02-01T09:28:50.259Z,1.30
2023-02-01T09:29:50.252Z,1.40
2023-02-01T09:30:50.341Z,1.30
2023-02-01T09:32:03.004Z,1.50
2023-02-01T09:32:51.320Z,1.50
2023-02-01T09:33:50.211Z,1.80
2023-02-01T09:34:50.213Z,1.60
2023-02-01T09:35:50.186Z,1.60
2023-02-01T09:36:50.174Z,1.30
2023-02-01T09:37:50.212Z,1.60
2023-02-01T09:38:53.579Z,1.60
2023-02-01T09:39:50.171Z,1.60
2023-02-01T09:40:50.193Z,2.00
2023-02-01T09:41:50.114Z,1.60
2023-02-01T09:42:50.128Z,1.90
2023-02-01T09:43:50.107Z,4.00
2023-02-01T09:44:50.107Z,2.10
2023-02-01T09:45:50.175Z,1.40
2023-02-01T09:46:50.071Z,1.80
2023-02-01T09:47:50.077Z,1.90
2023-02-01T09:48:50.107Z,1.30
2023-02-01T09:49:50.069Z,1.50
2023-02-01T09:50:50.021Z,1.60
2023-02-01T09:51:50.014Z,1.80
2023-02-01T09:52:50.039Z,2.60
2023-02-01T09:53:49.986Z,1.80
2023-02-01T09:54:49.981Z,1.40
2023-02-01T09:55:50.004Z,1.40
2023-02-01T09:56:49.957Z,1.50
2023-02-01T09:57:49.981Z,1.60
2023-02-01T09:58:49.957Z,1.30
2023-02-01T09:59:49.920Z,1.60
2023-02-01T10:00:49.917Z,1.20
2023-02-01T10:01:49.984Z,1.60
2023-02-01T10:02:49.908Z,1.30
2023-02-01T10:03:50.008Z,1.50
2023-02-01T10:04:49.962Z,1.20
2023-02-01T10:05:49.887Z,1.80
2023-02-01T10:06:49.848Z,2.10
2023-02-01T10:07:49.881Z,1.50
2023-02-01T10:08:49.848Z,1.70
2023-02-01T10:09:49.825Z,1.50
2023-02-01T10:10:49.853Z,1.70
2023-02-01T10:11:49.791Z,1.40
2023-02-01T10:12:49.804Z,1.40
2023-02-01T10:13:49.870Z,1.90
2023-02-01T10:14:49.771Z,1.50
2023-02-01T10:15:49.823Z,1.90
2023-02-01T10:16:49.871Z,1.60
2023-02-01T10:17:49.743Z,2.20
2023-02-01T10:18:49.725Z,1.60
2023-02-01T10:19:49.749Z,1.90
2023-02-01T10:20:49.727Z,1.50
2023-02-01T10:21:49.688Z,1.80
2023-02-01T10:23:13.761Z,1.90
2023-02-01T10:23:50.672Z,1.60
2023-02-01T10:24:49.671Z,1.90
2023-02-01T10:25:49.659Z,2.20
2023-02-01T10:26:49.723Z,1.80
2023-02-01T10:27:49.676Z,1.80
2023-02-01T10:28:49.618Z,1.70
2023-02-01T10:29:49.608Z,1.60
2023-02-01T10:30:49.670Z,1.80
2023-02-01T10:31:49.720Z,2.20
2023-02-01T10:32:49.609Z,2.20
2023-02-01T10:33:49.650Z,1.60
2023-02-01T10:34:49.559Z,1.80
2023-02-01T10:35:49.540Z,2.00
2023-02-01T10:36:49.550Z,2.20
2023-02-01T10:37:49.558Z,2.00
2023-02-01T10:38:49.504Z,2.40
2023-02-01T10:39:49.502Z,1.70
2023-02-01T10:40:49.518Z,1.70
2023-02-01T10:41:49.500Z,1.30
2023-02-01T10:42:49.512Z,1.70
2023-02-01T10:43:49.471Z,2.00
2023-02-01T10:44:49.448Z,2.10
2023-02-01T10:45:49.472Z,2.20
2023-02-01T10:46:49.475Z,1.80
2023-02-01T10:47:49.429Z,1.70
2023-02-01T10:48:49.410Z,1.90
2023-02-01T10:49:49.429Z,1.80
2023-02-01T10:50:49.400Z,1.90
2023-02-01T10:51:49.441Z,1.90
2023-02-01T10:52:49.388Z,2.00
2023-02-01T10:53:49.340Z,1.70
2023-02-01T10:54:49.338Z,1.60
2023-02-01T10:55:49.333Z,2.60
2023-02-01T10:56:49.445Z,1.50
2023-02-01T10:57:49.346Z,0.20
2023-02-01T10:58:49.298Z,0.30
2023-02-01T10:59:49.330Z,0.20
2023-02-01T11:00:49.316Z,0.20
2023-02-01T11:01:49.355Z,0.20
2023-02-01T11:02:49.246Z,0.10
2023-02-01T11:03:49.253Z,0.20
2023-02-01T11:04:49.241Z,0.10
2023-02-01T11:05:49.211Z,0.20
2023-02-01T11:06:49.204Z,0.50
2023-02-01T11:07:49.219Z,0.20
2023-02-01T11:08:49.297Z,0.10
2023-02-01T11:09:49.335Z,0.20
2023-02-01T11:10:49.158Z,0.20
2023-02-01T11:11:49.153Z,0.20
2023-02-01T11:12:49.178Z,0.10
2023-02-01T11:13:49.142Z,0.20
2023-02-01T11:14:49.173Z,0.10
2023-02-01T11:15:49.141Z,0.20
2023-02-01T11:16:49.103Z,0.30
2023-02-01T11:17:49.198Z,0.30
2023-02-01T11:18:49.175Z,0.20
2023-02-01T11:19:49.063Z,0.20
2023-02-01T11:20:49.052Z,0.20
2023-02-01T11:21:49.057Z,0.20
2023-02-01T11:22:49.061Z,0.20
2023-02-01T11:23:49.065Z,0.20
2023-02-01T11:24:49.072Z,0.20
2023-02-01T11:25:49.008Z,0.20
2023-02-01T11:26:49.151Z,0.20
2023-02-01T11:27:54.826Z,0.20
2023-02-01T11:28:49.969Z,0.10
2023-02-01T11:29:48.963Z,0.20
2023-02-01T11:30:49.008Z,0.20
2023-02-01T11:31:48.976Z,0.20
2023-02-01T11:32:48.953Z,0.20
2023-02-01T11:33:48.956Z,0.20
2023-02-01T11:34:48.943Z,0.10
2023-02-01T11:35:48.954Z,0.20
2023-02-01T11:36:48.903Z,0.20
2023-02-01T11:37:48.882Z,0.20
2023-02-01T11:38:48.873Z,0.20
2023-02-01T11:39:48.846Z,0.20
2023-02-01T11:40:48.859Z,0.20
2023-02-01T11:41:48.867Z,0.20
2023-02-01T11:42:48.851Z,0.20
2023-02-01T11:43:48.815Z,0.20
2023-02-01T11:44:48.936Z,0.10
2023-02-01T11:45:48.913Z,0.20
2023-02-01T11:46:48.804Z,0.20
2023-02-01T11:47:48.798Z,0.20
2023-02-01T11:48:48.779Z,0.40
2023-02-01T11:49:48.778Z,0.20
2023-02-01T11:50:48.739Z,0.20
2023-02-01T11:51:48.775Z,0.20
2023-02-01T11:52:48.806Z,0.20
2023-02-01T11:53:49.057Z,0.20
2023-02-01T11:54:48.737Z,0.20
2023-02-01T11:55:48.717Z,0.20
2023-02-01T11:56:48.681Z,0.20
2023-02-01T11:57:48.685Z,0.10
2023-02-01T11:58:48.693Z,0.20
2023-02-01T11:59:56.287Z,0.70
2023-02-01T12:00:49.623Z,1.70
2023-02-01T12:01:48.725Z,1.30
2023-02-01T12:02:48.926Z,1.40
2023-02-01T12:03:48.640Z,1.30
2023-02-01T12:04:48.602Z,1.30
2023-02-01T12:05:48.568Z,1.30
2023-02-01T12:06:48.569Z,1.60
2023-02-01T12:07:48.605Z,1.50
2023-02-01T12:08:48.537Z,1.30
2023-02-01T12:09:48.540Z,0.90
2023-02-01T12:10:48.586Z,1.30
2023-02-01T12:11:48.626Z,1.20
2023-02-01T12:12:48.533Z,1.10
2023-02-01T12:13:48.487Z,1.50
2023-02-01T12:14:48.584Z,1.50
2023-02-01T12:15:48.603Z,1.40
2023-02-01T12:16:48.588Z,1.20
2023-02-01T12:17:48.441Z,1.50
2023-02-01T12:18:48.518Z,1.40
2023-02-01T12:19:48.499Z,1.40
2023-02-01T12:20:48.429Z,1.60
2023-02-01T12:21:48.569Z,1.20
2023-02-01T12:22:48.403Z,1.40
2023-02-01T12:23:48.376Z,1.90
2023-02-01T12:24:48.384Z,1.40
2023-02-01T12:25:48.446Z,1.30
2023-02-01T12:26:48.406Z,2.00
2023-02-01T12:27:48.367Z,1.30
2023-02-01T12:28:48.410Z,1.40
2023-02-01T12:29:48.380Z,1.20
2023-02-01T12:30:48.483Z,1.50
2023-02-01T12:31:48.428Z,1.10
2023-02-01T12:32:48.293Z,1.60
2023-02-01T12:33:48.277Z,1.10
2023-02-01T12:34:48.286Z,1.30
2023-02-01T12:35:48.250Z,1.30
2023-02-01T12:36:48.236Z,1.50
2023-02-01T12:37:48.403Z,1.30
2023-02-01T12:38:48.337Z,1.70
2023-02-01T12:39:48.202Z,1.60
2023-02-01T12:40:48.193Z,1.70
2023-02-01T12:41:48.230Z,2.10
2023-02-01T12:42:48.185Z,1.60
2023-02-01T12:43:48.162Z,2.00
2023-02-01T12:44:48.282Z,1.60
2023-02-01T12:45:48.243Z,1.40
2023-02-01T12:46:48.265Z,1.90
2023-02-01T12:47:51.698Z,1.80
2023-02-01T12:48:48.104Z,2.80
2023-02-01T12:49:48.095Z,2.50
2023-02-01T12:50:48.104Z,4.00
2023-02-01T12:51:48.085Z,5.20
2023-02-01T12:52:48.076Z,5.20
2023-02-01T12:53:48.159Z,3.20
2023-02-01T12:54:48.050Z,3.80
2023-02-01T12:55:49.908Z,2.20
2023-02-01T12:56:48.322Z,1.90
2023-02-01T12:57:48.030Z,1.80
2023-02-01T12:58:48.033Z,1.70
2023-02-01T12:59:48.526Z,1.60
2023-02-01T13:00:48.039Z,2.00
2023-02-01T13:01:48.511Z,1.90
2023-02-01T13:02:48.000Z,1.90
2023-02-01T13:03:47.946Z,2.00
2023-02-01T13:04:48.728Z,3.30
2023-02-01T13:05:48.164Z,1.90
2023-02-01T13:06:47.913Z,1.90
2023-02-01T13:07:47.919Z,2.00
2023-02-01T13:08:47.890Z,2.30
2023-02-01T13:09:47.882Z,2.10
2023-02-01T13:10:47.888Z,1.90
2023-02-01T13:11:48.093Z,2.10
2023-02-01T13:12:47.869Z,1.80
2023-02-01T13:13:48.917Z,1.60
2023-02-01T13:14:47.876Z,1.80
2023-02-01T13:15:47.820Z,1.80
2023-02-01T13:16:47.879Z,2.40
2023-02-01T13:17:47.820Z,2.00
2023-02-01T13:18:47.785Z,1.90